createdAt,value
2018-08-10T00:02:27.001Z,97.90
2018-08-10T00:04:54.901Z,97.59
2018-08-10T00:07:22.301Z,98.39
2018-08-10T00:09:49.615Z,97.35
2018-08-10T00:12:16.994Z,97.19
2018-08-10T00:14:44.222Z,98.25
2018-08-10T00:17:11.502Z,97.99
2018-08-10T00:19:38.847Z,98.91
2018-08-10T00:22:06.090Z,97.34
2018-08-10T00:24:33.415Z,98.72
2018-08-10T00:27:00.680Z,97.49
2018-08-10T00:29:28.021Z,98.03
2018-08-10T00:31:55.254Z,96.00
2018-08-10T00:34:22.494Z,96.77
2018-08-10T00:36:49.790Z,98.07
2018-08-10T00:39:17.231Z,97.37
2018-08-10T00:41:45.906Z,97.36
2018-08-10T00:44:13.332Z,97.84
2018-08-10T00:46:40.751Z,98.33
2018-08-10T00:49:08.638Z,96.70
2018-08-10T00:51:36.074Z,96.01
2018-08-10T00:54:03.373Z,97.08
2018-08-10T00:56:30.966Z,97.72
2018-08-10T00:58:58.236Z,97.34
2018-08-10T01:01:25.651Z,95.32
2018-08-10T01:03:52.992Z,93.29
2018-08-10T01:06:20.212Z,94.03
2018-08-10T01:08:47.452Z,94.50
2018-08-10T01:11:14.807Z,94.08
2018-08-10T01:13:42.207Z,95.11
2018-08-10T01:16:09.511Z,95.15
2018-08-10T01:18:37.547Z,94.11
2018-08-10T01:21:04.782Z,95.51
2018-08-10T01:23:32.147Z,95.82
2018-08-10T01:25:59.411Z,93.87
2018-08-10T01:28:26.872Z,94.91
2018-08-10T01:30:54.874Z,94.96
2018-08-10T01:33:22.266Z,95.61
2018-08-10T01:35:50.490Z,96.98
2018-08-10T01:38:17.831Z,96.48
2018-08-10T01:40:45.120Z,96.84
2018-08-10T01:43:12.400Z,97.91
2018-08-10T01:45:39.615Z,98.93
2018-08-10T01:48:06.969Z,99.52
2018-08-10T01:50:34.237Z,100.00
2018-08-10T01:53:01.503Z,100.00
2018-08-10T01:55:29.459Z,100.00
2018-08-10T01:57:56.708Z,100.00
2018-08-10T02:00:23.944Z,100.00
2018-08-10T02:02:51.309Z,100.00
2018-08-10T02:05:18.742Z,100.00
2018-08-10T02:07:45.945Z,100.00
2018-08-10T02:10:15.327Z,100.00
2018-08-10T02:12:43.347Z,100.00
2018-08-10T02:15:12.751Z,100.00
2018-08-10T02:17:40.063Z,100.00
2018-08-10T02:20:08.890Z,100.00
2018-08-10T02:22:36.301Z,100.00
2018-08-10T02:25:04.484Z,100.00
2018-08-10T02:27:31.731Z,100.00
2018-08-10T02:29:59.218Z,100.00
2018-08-10T02:32:26.554Z,100.00
2018-08-10T02:34:53.829Z,100.00
2018-08-10T02:37:21.112Z,100.00
2018-08-10T02:39:48.448Z,100.00
2018-08-10T02:42:15.662Z,100.00
2018-08-10T02:44:42.893Z,100.00
2018-08-10T02:47:10.090Z,100.00
2018-08-10T02:49:37.318Z,100.00
2018-08-10T02:52:04.627Z,100.00
2018-08-10T02:54:32.076Z,100.00
2018-08-10T02:56:59.327Z,100.00
2018-08-10T02:59:27.319Z,100.00
2018-08-10T03:01:55.571Z,100.00
2018-08-10T03:04:22.843Z,100.00
2018-08-10T03:06:50.408Z,100.00
2018-08-10T03:09:17.657Z,100.00
2018-08-10T03:11:44.962Z,100.00
2018-08-10T03:14:12.291Z,100.00
2018-08-10T03:16:39.566Z,100.00
2018-08-10T03:19:06.857Z,100.00
2018-08-10T03:21:34.208Z,100.00
2018-08-10T03:24:01.575Z,100.00
2018-08-10T03:26:28.985Z,100.00
2018-08-10T03:28:56.241Z,100.00
2018-08-10T03:31:23.466Z,100.00
2018-08-10T03:33:50.711Z,100.00
2018-08-10T03:36:18.050Z,100.00
2018-08-10T03:38:45.294Z,100.00
2018-08-10T03:41:12.530Z,100.00
2018-08-10T03:43:39.714Z,100.00
2018-08-10T03:46:07.012Z,100.00
2018-08-10T03:48:34.269Z,100.00
2018-08-10T03:51:01.496Z,100.00
2018-08-10T03:53:28.937Z,100.00
2018-08-10T03:55:56.169Z,100.00
2018-08-10T03:58:23.404Z,100.00
2018-08-10T04:00:50.681Z,100.00
2018-08-10T04:03:17.916Z,100.00
2018-08-10T04:05:45.214Z,100.00
2018-08-10T04:08:13.042Z,100.00
2018-08-10T04:10:40.320Z,100.00
2018-08-10T04:13:07.598Z,100.00
2018-08-10T04:15:35.634Z,100.00
2018-08-10T04:18:03.052Z,100.00
2018-08-10T04:20:30.333Z,100.00
2018-08-10T04:22:57.565Z,100.00
2018-08-10T04:25:24.863Z,100.00
2018-08-10T04:27:52.123Z,100.00
2018-08-10T04:30:19.394Z,100.00
2018-08-10T04:32:46.602Z,100.00
2018-08-10T04:35:13.864Z,100.00
2018-08-10T04:37:41.117Z,100.00
2018-08-10T04:40:09.596Z,100.00
2018-08-10T04:42:37.556Z,100.00
2018-08-10T04:45:05.045Z,100.00
2018-08-10T04:47:32.285Z,100.00
2018-08-10T04:49:59.553Z,100.00
2018-08-10T04:52:27.487Z,100.00
2018-08-10T04:54:54.750Z,100.00
2018-08-10T04:57:21.985Z,100.00
2018-08-10T04:59:49.291Z,100.00
2018-08-10T05:02:16.523Z,100.00
2018-08-10T05:04:43.866Z,100.00
2018-08-10T05:07:11.202Z,100.00
2018-08-10T05:09:38.507Z,100.00
2018-08-10T05:12:05.849Z,100.00
2018-08-10T05:14:33.862Z,100.00
2018-08-10T05:17:01.208Z,100.00
2018-08-10T05:19:28.489Z,100.00
2018-08-10T05:21:55.738Z,100.00
2018-08-10T05:24:23.049Z,100.00
2018-08-10T05:26:50.380Z,100.00
2018-08-10T05:29:17.652Z,100.00
2018-08-10T05:31:44.927Z,100.00
2018-08-10T05:34:12.301Z,100.00
2018-08-10T05:36:40.101Z,100.00
2018-08-10T05:39:08.679Z,100.00
2018-08-10T05:41:35.980Z,100.00
2018-08-10T05:44:03.269Z,100.00
2018-08-10T05:46:30.931Z,100.00
2018-08-10T05:48:58.289Z,100.00
2018-08-10T05:51:25.550Z,100.00
2018-08-10T05:53:52.969Z,100.00
2018-08-10T05:56:20.269Z,100.00
2018-08-10T05:58:47.551Z,100.00
2018-08-10T06:01:14.797Z,100.00
2018-08-10T06:03:42.120Z,100.00
2018-08-10T06:06:09.509Z,100.00
2018-08-10T06:08:36.837Z,100.00
2018-08-10T06:11:04.327Z,100.00
2018-08-10T06:13:31.581Z,100.00
2018-08-10T06:15:58.942Z,100.00
2018-08-10T06:18:26.152Z,100.00
2018-08-10T06:20:53.398Z,100.00
2018-08-10T06:23:20.671Z,100.00
2018-08-10T06:25:48.013Z,100.00
2018-08-10T06:28:15.328Z,100.00
2018-08-10T06:30:42.732Z,100.00
2018-08-10T06:33:10.107Z,100.00
2018-08-10T06:35:37.415Z,100.00
2018-08-10T06:38:05.847Z,100.00
2018-08-10T06:40:33.250Z,100.00
2018-08-10T06:43:00.508Z,100.00
2018-08-10T06:45:27.810Z,100.00
2018-08-10T06:47:55.238Z,100.00
2018-08-10T06:50:22.590Z,100.00
2018-08-10T06:52:50.396Z,99.85
2018-08-10T06:55:19.929Z,100.00
2018-08-10T06:57:47.439Z,98.96
2018-08-10T07:00:14.812Z,99.04
2018-08-10T07:02:42.358Z,98.93
2018-08-10T07:05:09.659Z,99.13
2018-08-10T07:07:37.499Z,98.28
2018-08-10T07:10:05.775Z,97.61
2018-08-10T07:12:33.030Z,97.86
2018-08-10T07:15:00.435Z,96.25
2018-08-10T07:17:27.770Z,95.94
2018-08-10T07:19:55.124Z,95.23
2018-08-10T07:22:22.564Z,94.68
2018-08-10T07:24:49.817Z,95.88
2018-08-10T07:27:17.450Z,94.62
2018-08-10T07:29:44.682Z,92.89
2018-08-10T07:32:12.040Z,94.16
2018-08-10T07:34:39.360Z,95.14
2018-08-10T07:37:07.383Z,92.20
2018-08-10T07:39:34.758Z,91.49
2018-08-10T07:42:02.036Z,90.75
2018-08-10T07:44:29.365Z,90.73
2018-08-10T07:46:56.722Z,93.64
2018-08-10T07:49:24.352Z,95.44
2018-08-10T07:51:51.616Z,97.85
2018-08-10T07:54:18.864Z,96.93
2018-08-10T07:56:46.146Z,97.82
2018-08-10T07:59:13.401Z,98.47
2018-08-10T08:01:40.785Z,99.59
2018-08-10T08:04:09.597Z,99.82
2018-08-10T08:06:37.063Z,100.00
2018-08-10T08:09:08.067Z,98.83
2018-08-10T08:11:35.433Z,98.33
2018-08-10T08:14:03.001Z,95.98
2018-08-10T08:16:30.433Z,96.48
2018-08-10T08:18:58.685Z,96.54
2018-08-10T08:21:26.585Z,95.35
2018-08-10T08:23:53.931Z,95.40
2018-08-10T08:26:21.646Z,96.74
2018-08-10T08:28:49.795Z,97.88
2018-08-10T08:31:17.271Z,95.93
2018-08-10T08:33:56.084Z,92.82
2018-08-10T08:36:24.178Z,91.44
2018-08-10T08:39:28.703Z,91.79
2018-08-10T08:41:56.169Z,90.11
2018-08-10T08:44:36.297Z,87.91
2018-08-10T08:47:04.775Z,88.96
2018-08-10T08:49:32.298Z,89.11
2018-08-10T08:52:00.315Z,90.60
2018-08-10T08:55:05.260Z,89.22
2018-08-10T08:57:33.438Z,85.51
2018-08-10T09:00:01.365Z,88.11
2018-08-10T09:02:29.030Z,86.42
2018-08-10T09:05:02.725Z,86.84
2018-08-10T09:07:30.711Z,91.39
2018-08-10T09:09:58.610Z,87.05
2018-08-10T09:12:26.775Z,88.26
2018-08-10T09:14:58.247Z,87.00
2018-08-10T09:17:25.604Z,86.13
2018-08-10T09:19:54.024Z,85.82
2018-08-10T09:22:21.448Z,83.76
2018-08-10T09:24:49.599Z,86.97
2018-08-10T09:27:16.988Z,85.68
2018-08-10T09:29:45.302Z,82.89
2018-08-10T09:32:12.641Z,82.81
2018-08-10T09:34:40.509Z,81.84
2018-08-10T09:37:08.646Z,85.44
2018-08-10T13:28:12.957Z,34.46
2018-08-10T13:30:40.205Z,37.77
2018-08-10T13:33:07.505Z,39.38
2018-08-10T13:35:34.929Z,41.71
2018-08-10T13:38:02.878Z,44.31
2018-08-10T13:40:30.459Z,44.77
2018-08-10T13:42:57.696Z,44.59
2018-08-10T13:45:25.009Z,41.55
2018-08-10T13:47:52.393Z,41.04
2018-08-10T13:50:19.735Z,42.03
2018-08-10T13:52:47.173Z,44.43
2018-08-10T13:55:16.339Z,42.46
2018-08-10T13:57:43.692Z,40.19
2018-08-10T14:00:17.371Z,39.92
2018-08-10T14:02:44.712Z,38.40
2018-08-10T14:05:12.163Z,33.66
2018-08-10T14:07:39.606Z,33.84
2018-08-10T14:10:07.164Z,33.45
2018-08-10T14:12:35.273Z,31.45
2018-08-10T14:15:02.664Z,31.60
2018-08-10T14:17:30.247Z,30.00
2018-08-10T14:19:57.524Z,29.95
2018-08-10T14:22:24.918Z,29.47
2018-08-10T14:24:52.460Z,28.52
2018-08-10T14:27:19.941Z,28.59
2018-08-10T14:29:49.014Z,29.91
2018-08-10T14:32:16.804Z,34.49
2018-08-10T14:34:44.307Z,35.30
2018-08-10T14:37:11.568Z,38.03
2018-08-10T14:39:39.000Z,39.50
2018-08-10T14:42:06.354Z,41.43
2018-08-10T14:44:33.736Z,40.71
2018-08-10T14:47:01.208Z,41.72
2018-08-10T14:49:28.473Z,42.73
2018-08-10T14:51:55.796Z,44.19
2018-08-10T14:54:23.073Z,44.94
2018-08-10T14:56:50.340Z,45.58
2018-08-10T14:59:17.747Z,46.48
2018-08-10T15:01:45.125Z,47.99
2018-08-10T15:04:12.946Z,50.64
2018-08-10T15:06:40.461Z,59.83
2018-08-10T15:09:10.760Z,59.89
2018-08-10T15:11:38.147Z,56.07
2018-08-10T15:14:06.534Z,46.73
2018-08-10T15:16:33.778Z,49.62
2018-08-10T15:19:01.153Z,59.64
2018-08-10T15:21:28.502Z,63.39
2018-08-10T15:23:55.848Z,65.95
2018-08-10T15:26:23.252Z,62.48
2018-08-10T15:28:51.339Z,60.89
2018-08-10T15:31:18.598Z,60.34
2018-08-10T15:33:45.894Z,56.07
2018-08-10T15:36:13.243Z,61.98
2018-08-10T15:38:40.669Z,62.76
2018-08-10T15:41:08.002Z,60.35
2018-08-10T15:43:35.316Z,59.36
2018-08-10T15:46:02.641Z,60.02
2018-08-10T15:48:30.209Z,59.44
2018-08-10T15:50:57.620Z,57.84
2018-08-10T15:53:25.892Z,59.72
2018-08-10T15:55:53.160Z,57.94
2018-08-10T15:58:20.446Z,55.10
2018-08-10T16:00:47.793Z,54.91
2018-08-10T16:03:15.107Z,54.75
2018-08-10T16:05:42.462Z,53.49
2018-08-10T16:08:09.734Z,54.63
2018-08-10T16:10:37.029Z,54.81
2018-08-10T16:13:04.500Z,54.83
2018-08-10T16:15:31.791Z,55.96
2018-08-10T16:17:59.157Z,55.66
2018-08-10T16:20:26.511Z,56.50
2018-08-10T16:22:53.921Z,56.66
2018-08-10T16:25:21.282Z,56.84
2018-08-10T16:27:48.892Z,57.39
2018-08-10T16:30:16.545Z,58.08
2018-08-10T16:32:44.730Z,57.79
2018-08-10T16:35:12.988Z,57.64
2018-08-10T16:37:41.573Z,56.70
2018-08-10T16:40:09.734Z,57.44
2018-08-10T16:42:38.126Z,57.31
2018-08-10T16:45:05.699Z,57.50
2018-08-10T16:47:33.124Z,58.02
2018-08-10T16:50:01.210Z,58.22
2018-08-10T16:52:28.600Z,57.08
2018-08-10T16:54:56.018Z,56.18
2018-08-10T16:57:23.487Z,56.67
2018-08-10T16:59:50.909Z,56.83
2018-08-10T17:02:18.430Z,58.05
2018-08-10T17:04:45.769Z,56.68
2018-08-10T17:07:13.884Z,58.22
2018-08-10T17:09:41.283Z,63.45
2018-08-10T17:12:09.709Z,65.73
2018-08-10T17:14:38.477Z,67.67
2018-08-10T17:17:05.844Z,68.82
2018-08-10T17:19:33.312Z,69.96
2018-08-10T17:22:00.802Z,70.45
2018-08-10T17:24:28.539Z,71.79
2018-08-10T17:26:55.968Z,71.15
2018-08-10T17:29:23.317Z,69.66
2018-08-10T17:31:50.878Z,72.69
2018-08-10T17:34:18.588Z,73.47
2018-08-10T17:36:45.951Z,75.86
2018-08-10T17:39:13.903Z,78.06
2018-08-10T17:41:42.201Z,76.14
2018-08-10T17:44:09.803Z,75.76
2018-08-10T17:46:37.119Z,75.63
2018-08-10T17:49:05.173Z,74.44
2018-08-10T17:51:32.822Z,76.70
2018-08-10T17:54:00.322Z,76.27
2018-08-10T17:56:29.341Z,79.31
2018-08-10T17:58:57.643Z,77.06
2018-08-10T18:01:25.669Z,76.95
2018-08-10T18:03:53.501Z,76.87
2018-08-10T18:06:21.156Z,76.86
2018-08-10T18:08:48.650Z,75.56
2018-08-10T18:11:15.983Z,75.58
2018-08-10T18:13:43.584Z,73.23
2018-08-10T18:16:11.314Z,75.52
2018-08-10T18:18:39.910Z,73.78
2018-08-10T18:21:07.350Z,73.15
2018-08-10T18:23:35.012Z,77.75
2018-08-10T18:26:02.607Z,80.67
2018-08-10T18:28:30.062Z,83.92
2018-08-10T18:30:58.122Z,84.84
2018-08-10T18:33:25.629Z,85.38
2018-08-10T18:35:53.325Z,87.04
2018-08-10T18:38:20.870Z,88.00
2018-08-10T18:40:48.202Z,88.83
2018-08-10T18:43:15.546Z,88.59
2018-08-10T18:45:42.783Z,88.65
2018-08-10T18:48:10.206Z,88.54
2018-08-10T18:50:38.151Z,87.60
2018-08-10T18:53:05.399Z,89.52
2018-08-10T18:55:32.818Z,89.73
2018-08-10T18:58:00.922Z,89.81
2018-08-10T19:00:28.335Z,90.29
2018-08-10T19:02:56.450Z,91.32
2018-08-10T19:05:24.093Z,91.52
2018-08-10T19:07:52.496Z,90.84
2018-08-10T19:10:22.480Z,91.99
2018-08-10T19:12:50.137Z,91.82
2018-08-10T19:15:17.792Z,92.46
2018-08-10T19:17:45.659Z,92.84
2018-08-10T19:20:13.633Z,91.83
2018-08-10T19:22:41.251Z,93.21
2018-08-10T19:25:10.770Z,92.51
2018-08-10T19:27:38.197Z,92.17
2018-08-10T19:30:09.701Z,92.76
2018-08-10T19:32:37.695Z,92.38
2018-08-10T19:35:05.746Z,92.40
2018-08-10T19:37:33.089Z,91.71
2018-08-10T19:40:00.663Z,92.02
2018-08-10T19:42:28.124Z,93.52
2018-08-10T19:44:55.405Z,94.30
2018-08-10T19:47:22.814Z,94.90
2018-08-10T19:49:50.509Z,95.54
2018-08-10T19:52:17.814Z,95.86
2018-08-10T19:56:15.413Z,100.00
2018-08-10T19:59:09.629Z,100.00
2018-08-10T20:01:37.002Z,100.00
2018-08-10T20:04:04.513Z,100.00
2018-08-10T20:06:36.165Z,100.00
2018-08-10T20:14:18.261Z,100.00
2018-08-10T20:16:45.744Z,98.24
2018-08-10T20:19:13.197Z,99.22
2018-08-10T20:21:40.683Z,99.78
2018-08-10T20:24:08.015Z,99.26
2018-08-10T20:26:36.420Z,99.41
2018-08-10T20:29:03.960Z,99.47
2018-08-10T20:31:31.673Z,99.04
2018-08-10T20:33:59.074Z,99.33
2018-08-10T20:36:26.584Z,99.43
2018-08-10T20:38:54.124Z,99.09
2018-08-10T20:41:21.490Z,99.30
2018-08-10T20:43:49.061Z,99.31
2018-08-10T20:46:17.053Z,99.46
2018-08-10T20:48:44.777Z,99.39
2018-08-10T20:51:12.825Z,99.15
2018-08-10T20:53:41.141Z,98.35
2018-08-10T20:56:10.100Z,98.25
2018-08-10T20:58:42.309Z,98.73
2018-08-10T21:01:10.800Z,99.32
2018-08-10T21:03:38.125Z,99.70
2018-08-10T21:06:05.611Z,99.50
2018-08-10T21:08:33.028Z,99.89
2018-08-10T21:11:00.325Z,99.68
2018-08-10T21:13:27.685Z,99.73
2018-08-10T21:15:54.998Z,100.00
2018-08-10T21:18:22.355Z,100.00
2018-08-10T21:20:50.011Z,100.00
2018-08-10T21:23:17.428Z,100.00
2018-08-10T21:25:45.047Z,100.00
2018-08-10T21:28:12.421Z,100.00
2018-08-10T21:30:40.371Z,100.00
2018-08-10T21:33:07.734Z,100.00
2018-08-10T21:35:35.481Z,100.00
2018-08-10T21:38:02.833Z,99.94
2018-08-10T21:40:30.214Z,99.73
2018-08-10T21:42:57.569Z,99.85
2018-08-10T21:45:24.996Z,100.00
2018-08-10T21:47:52.303Z,100.00
2018-08-10T21:50:19.686Z,99.34
2018-08-10T21:52:47.060Z,99.25
2018-08-10T21:55:15.004Z,99.68
2018-08-10T21:57:42.377Z,99.41
2018-08-10T22:00:17.414Z,100.00
2018-08-10T22:02:44.668Z,100.00
2018-08-10T22:05:11.965Z,100.00
2018-08-10T22:07:39.377Z,100.00
2018-08-10T22:10:06.701Z,100.00
2018-08-10T22:12:38.745Z,100.00
2018-08-10T22:15:11.777Z,100.00
2018-08-10T22:17:45.104Z,100.00
2018-08-10T22:20:12.493Z,100.00
2018-08-10T22:22:40.183Z,99.92
2018-08-10T22:25:07.526Z,100.00
2018-08-10T22:27:34.898Z,100.00
2018-08-10T22:30:02.225Z,100.00
2018-08-10T22:32:29.605Z,99.63
2018-08-10T22:34:56.923Z,100.00
2018-08-10T22:37:24.308Z,99.84
2018-08-10T22:39:51.699Z,99.58
2018-08-10T22:42:18.950Z,99.44
2018-08-10T22:44:46.257Z,100.00
2018-08-10T22:47:13.913Z,100.00
2018-08-10T22:49:41.356Z,100.00
2018-08-10T22:52:08.740Z,100.00
2018-08-10T22:54:36.302Z,100.00
2018-08-10T22:57:03.576Z,100.00
2018-08-10T22:59:31.659Z,100.00
2018-08-10T23:01:59.697Z,100.00
2018-08-10T23:04:27.111Z,99.87
2018-08-10T23:06:54.812Z,100.00
2018-08-10T23:09:22.268Z,100.00
2018-08-10T23:11:49.629Z,99.73
2018-08-10T23:14:17.046Z,99.64
2018-08-10T23:16:44.335Z,99.90
2018-08-10T23:19:11.722Z,100.00
2018-08-10T23:21:39.004Z,100.00
2018-08-10T23:24:06.466Z,100.00
2018-08-10T23:26:33.763Z,100.00
2018-08-10T23:29:01.083Z,100.00
2018-08-10T23:31:28.402Z,100.00
2018-08-10T23:33:56.258Z,100.00
2018-08-10T23:36:23.792Z,100.00
2018-08-10T23:38:51.059Z,100.00
2018-08-10T23:41:18.378Z,100.00
2018-08-10T23:43:45.703Z,100.00
2018-08-10T23:46:13.685Z,100.00
2018-08-10T23:48:40.941Z,100.00
2018-08-10T23:51:08.256Z,100.00
2018-08-10T23:53:36.059Z,100.00
2018-08-10T23:56:03.414Z,100.00
2018-08-10T23:58:30.912Z,100.00
